Time;durP1;ratioP1;P1;durP2;ratioP2;P2;SDS_P1;SDS_P2;PMS_P1;PMS_P2;Temp;Humidity;BMP_temperature;BMP_pressure;BME280_temperature;BME280_humidity;BME280_pressure;Samples;Min_cycle;Max_cycle;Signal;HPM_P1;HPM_P2
2022/11/20 00:00:15;;;;;;;11.40;5.10;;;;;;;1.99;94.73;100923.06;4993015;28;20137;-73
2022/11/20 00:02:41;;;;;;;8.50;4.83;;;;;;;2.14;94.62;100929.19;4992712;28;20033;-73
2022/11/20 00:05:07;;;;;;;15.50;4.93;;;;;;;2.04;94.96;100933.44;5010219;28;20100;-73
2022/11/20 00:07:32;;;;;;;9.03;5.07;;;;;;;2.03;95.39;100937.06;5011277;28;20072;-73
2022/11/20 00:09:58;;;;;;;8.57;4.63;;;;;;;2.11;95.02;100934.75;4992698;28;20056;-73
2022/11/20 00:12:23;;;;;;;8.80;4.77;;;;;;;2.23;94.52;100944.59;5007082;28;20037;-73
2022/11/20 00:14:48;;;;;;;16.47;4.33;;;;;;;2.11;95.23;100935.59;4990088;28;20018;-72
2022/11/20 00:17:14;;;;;;;11.87;5.43;;;;;;;1.94;95.72;100926.97;4993445;28;20113;-72
2022/11/20 00:19:39;;;;;;;11.13;4.97;;;;;;;1.90;95.87;100932.53;4991656;28;20032;-72
2022/11/20 00:22:04;;;;;;;8.43;5.07;;;;;;;1.84;95.33;100932.94;4992670;28;20022;-73
2022/11/20 00:24:29;;;;;;;12.93;4.87;;;;;;;1.93;95.81;100930.63;4989473;28;20061;-73
2022/11/20 00:26:55;;;;;;;13.73;5.10;;;;;;;1.89;96.06;100930.84;4988792;28;20025;-73
2022/11/20 00:29:21;;;;;;;12.70;4.97;;;;;;;1.79;97.18;100924.38;4981506;28;20518;-73
2022/11/20 00:31:46;;;;;;;12.17;5.17;;;;;;;1.74;97.65;100936.31;5004593;28;20030;-73
2022/11/20 00:34:11;;;;;;;9.20;5.00;;;;;;;1.67;98.04;100929.66;4990549;28;20471;-73
2022/11/20 00:36:37;;;;;;;14.23;5.53;;;;;;;1.52;98.89;100936.84;5017764;28;20497;-72
2022/11/20 00:39:03;;;;;;;8.53;5.17;;;;;;;1.46;100.00;100939.91;4999624;28;20029;-72
2022/11/20 00:41:29;;;;;;;14.37;5.40;;;;;;;1.37;100.00;100938.69;5013070;28;20044;-72
2022/11/20 00:43:56;;;;;;;10.50;5.27;;;;;;;1.65;99.78;100927.09;4997444;28;20065;-72
2022/11/20 00:46:23;;;;;;;14.70;5.57;;;;;;;1.77;98.71;100920.97;4994553;28;20018;-72
2022/11/20 00:48:49;;;;;;;9.13;4.77;;;;;;;1.73;98.71;100919.44;5014320;28;20018;-72
2022/11/20 00:51:17;;;;;;;9.90;4.70;;;;;;;1.63;98.36;100923.69;5000111;28;20164;-72
2022/11/20 00:53:43;;;;;;;12.80;5.50;;;;;;;1.67;98.72;100929.66;4997257;28;20021;-73
2022/11/20 00:56:13;;;;;;;14.37;5.47;;;;;;;1.50;99.21;100922.72;4997109;28;20032;-73
2022/11/20 00:58:41;;;;;;;15.03;6.43;;;;;;;1.40;99.42;100924.28;5011014;28;20017;-73
2022/11/20 01:01:12;;;;;;;13.50;5.60;;;;;;;1.35;99.68;100914.75;5010761;28;20021;-73
2022/11/20 01:03:39;;;;;;;;;;;;;;;1.75;99.03;100917.50;4995422;28;20029;-73
2022/11/20 01:06:12;;;;;;;17.43;5.27;;;;;;;1.88;98.14;100918.41;4993049;28;19976;-73
2022/11/20 01:08:38;;;;;;;13.03;5.33;;;;;;;2.01;97.53;100917.59;4990912;28;20030;-73
2022/11/20 01:11:07;;;;;;;8.07;4.97;;;;;;;1.93;97.94;100915.44;4992938;28;20501;-73
2022/11/20 01:13:38;;;;;;;15.40;5.10;;;;;;;1.96;98.09;100919.75;4984387;28;20109;-73
2022/11/20 01:16:15;;;;;;;9.43;5.13;;;;;;;1.86;98.78;100915.00;4998733;28;20029;-73
2022/11/20 01:18:43;;;;;;;9.53;4.70;;;;;;;1.66;99.83;100918.13;5012595;28;20029;-73
2022/11/20 01:21:36;;;;;;;8.77;5.43;;;;;;;1.70;99.78;100914.31;4994641;28;20033;-73
2022/11/20 01:24:02;;;;;;;19.27;5.63;;;;;;;1.50;100.00;100912.06;5000363;28;20045;-73
2022/11/20 01:26:31;;;;;;;14.37;5.07;;;;;;;1.57;100.00;100913.41;5005700;28;20030;-71
2022/11/20 01:28:57;;;;;;;11.17;5.60;;;;;;;1.57;100.00;100908.06;5003596;28;20033;-72
2022/11/20 01:31:25;;;;;;;10.27;5.43;;;;;;;1.46;100.00;100907.91;4988632;28;20025;-72
2022/11/20 01:33:53;;;;;;;12.17;5.83;;;;;;;1.38;100.00;100896.88;4992686;28;20092;-72
2022/11/20 01:36:21;;;;;;;11.43;5.47;;;;;;;1.41;100.00;100888.66;4989211;28;20053;-72
2022/11/20 01:38:47;;;;;;;15.07;5.97;;;;;;;1.57;100.00;100892.06;4995124;28;20010;-72
2022/11/20 01:43:59;;;;;;;10.67;5.73;;;;;;;1.62;100.00;100873.91;5003799;28;20028;-72
2022/11/20 01:46:25;;;;;;;9.83;5.50;;;;;;;1.54;100.00;100876.22;5002883;28;20080;-72
2022/11/20 01:49:20;;;;;;;10.80;5.77;;;;;;;1.40;100.00;100878.94;4975769;28;20034;-72
2022/11/20 01:51:52;;;;;;;11.17;5.67;;;;;;;1.51;100.00;100877.28;5000375;28;20375;-72
2022/11/20 01:54:43;;;;;;;9.53;5.70;;;;;;;1.42;100.00;100872.53;5005282;28;20500;-72
2022/11/20 01:57:11;;;;;;;14.00;6.28;;;;;;;1.59;100.00;100876.78;4995977;28;20036;-72
2022/11/20 01:59:48;;;;;;;17.00;6.87;;;;;;;1.55;100.00;100872.59;5011582;28;20022;-72
2022/11/20 02:02:14;;;;;;;15.93;5.97;;;;;;;1.64;100.00;100872.00;4993418;28;20093;-72
2022/11/20 02:04:39;;;;;;;17.37;7.37;;;;;;;1.32;100.00;100876.78;4993651;28;20052;-72
2022/11/20 02:07:05;;;;;;;13.87;6.77;;;;;;;1.32;100.00;100877.63;5004871;28;20359;-72
2022/11/20 02:09:31;;;;;;;14.70;7.80;;;;;;;1.48;100.00;100871.28;4998031;28;20068;-72
2022/11/20 02:11:58;;;;;;;12.73;6.77;;;;;;;1.36;100.00;100868.47;4998646;28;20025;-72
2022/11/20 02:14:24;;;;;;;15.73;6.90;;;;;;;1.31;100.00;100873.25;4995265;28;20025;-71
2022/11/20 02:16:50;;;;;;;19.43;7.87;;;;;;;1.27;100.00;100870.88;4998606;28;20489;-72
2022/11/20 02:19:27;;;;;;;15.33;7.63;;;;;;;1.22;100.00;100863.16;5010453;28;20454;-72
2022/11/20 02:22:13;;;;;;;18.03;7.50;;;;;;;1.35;100.00;100861.41;4995607;28;20021;-72
2022/11/20 02:24:39;;;;;;;12.87;7.23;;;;;;;1.46;100.00;100857.22;4996925;28;20026;-72
2022/11/20 02:27:10;;;;;;;17.07;7.53;;;;;;;1.56;100.00;100859.16;5004900;28;20034;-72
2022/11/20 02:29:45;;;;;;;14.90;6.70;;;;;;;1.63;100.00;100848.97;5004066;28;20083;-72
2022/11/20 02:32:28;;;;;;;11.60;6.87;;;;;;;1.63;100.00;100854.28;4989437;28;20026;-72
2022/11/20 02:34:54;;;;;;;18.80;7.50;;;;;;;1.46;100.00;100849.19;4984792;28;20025;-72
2022/11/20 02:37:20;;;;;;;18.20;7.10;;;;;;;1.48;100.00;100850.81;4993951;28;20056;-72
2022/11/20 02:39:48;;;;;;;9.97;6.90;;;;;;;1.46;100.00;100857.22;4992751;28;20034;-72
2022/11/20 02:42:14;;;;;;;13.10;6.80;;;;;;;1.53;100.00;100846.03;5005825;28;20021;-73
2022/11/20 02:44:39;;;;;;;18.43;6.50;;;;;;;1.63;100.00;100847.16;4991061;28;20406;-73
2022/11/20 02:47:05;;;;;;;12.60;6.07;;;;;;;1.46;100.00;100849.19;4997404;28;20030;-72
2022/11/20 02:49:30;;;;;;;12.27;5.83;;;;;;;1.62;100.00;100836.53;5013058;28;20029;-72
2022/11/20 02:51:55;;;;;;;21.47;7.97;;;;;;;1.47;100.00;100842.91;4996765;28;20033;-72
2022/11/20 02:54:21;;;;;;;14.07;5.90;;;;;;;1.35;100.00;100839.22;5003967;28;20029;-72
2022/11/20 02:56:46;;;;;;;12.90;6.57;;;;;;;1.25;100.00;100833.66;4986450;28;20056;-72
2022/11/20 02:59:12;;;;;;;13.03;6.53;;;;;;;1.41;100.00;100832.63;5003770;28;20105;-73
2022/11/20 03:01:37;;;;;;;12.57;6.50;;;;;;;1.50;100.00;100832.03;4987005;28;20037;-72
2022/11/20 03:04:03;;;;;;;15.27;6.33;;;;;;;1.56;100.00;100831.63;5007513;28;20032;-73
2022/11/20 03:06:28;;;;;;;17.60;7.07;;;;;;;1.55;100.00;100829.91;4987436;28;20053;-72
2022/11/20 03:08:54;;;;;;;13.03;6.37;;;;;;;1.71;100.00;100830.63;4991324;28;20030;-72
2022/11/20 03:11:19;;;;;;;11.07;6.40;;;;;;;1.62;100.00;100836.53;5006980;28;20037;-72
2022/11/20 03:13:45;;;;;;;9.00;5.67;;;;;;;1.56;100.00;100826.28;4987029;28;20113;-73
2022/11/20 03:16:13;;;;;;;12.53;5.87;;;;;;;1.49;100.00;100840.97;4993440;28;20529;-73
2022/11/20 03:18:40;;;;;;;9.33;6.10;;;;;;;1.63;100.00;100835.63;5008835;28;20033;-73
2022/11/20 03:21:06;;;;;;;13.47;7.03;;;;;;;1.45;100.00;100836.81;4991527;28;20033;-72
2022/11/20 03:23:32;;;;;;;12.60;6.47;;;;;;;1.38;100.00;100832.84;5013188;23;20400;-71
2022/11/20 03:26:13;;;;;;;9.63;5.70;;;;;;;1.70;100.00;100834.25;5024261;28;20037;-71
2022/11/20 03:28:40;;;;;;;13.13;6.90;;;;;;;1.47;100.00;100837.56;4993187;28;20041;-72
2022/11/20 03:31:11;;;;;;;15.20;5.70;;;;;;;1.41;100.00;100837.97;5005427;28;20123;-72
2022/11/20 03:33:38;;;;;;;14.05;6.63;;;;;;;1.70;100.00;100838.72;4997203;28;20022;-71
2022/11/20 03:36:05;;;;;;;18.03;6.60;;;;;;;1.75;100.00;100826.75;4989433;28;20386;-72
2022/11/20 03:38:31;;;;;;;17.10;7.47;;;;;;;1.77;100.00;100822.19;5007027;28;20072;-72
2022/11/20 03:41:02;;;;;;;13.80;6.13;;;;;;;1.75;100.00;100832.09;5022187;28;20021;-73
2022/11/20 03:43:27;;;;;;;14.13;5.73;;;;;;;1.69;100.00;100824.50;4999024;28;20152;-72
2022/11/20 03:45:53;;;;;;;12.33;6.60;;;;;;;1.58;100.00;100827.91;5021199;28;20118;-71
2022/11/20 03:48:18;;;;;;;10.43;6.37;;;;;;;1.46;100.00;100819.84;5015958;28;20028;-72
2022/11/20 03:50:44;;;;;;;11.07;5.23;;;;;;;1.43;100.00;100825.38;4998770;28;20033;-70
2022/11/20 03:53:09;;;;;;;14.47;6.87;;;;;;;1.58;100.00;100819.03;5011981;28;20082;-72
2022/11/20 03:55:34;;;;;;;10.67;6.17;;;;;;;1.48;100.00;100817.94;5004736;28;20079;-73
2022/11/20 03:58:00;;;;;;;13.80;6.67;;;;;;;1.63;100.00;100816.94;4997423;28;20478;-73
2022/11/20 04:00:25;;;;;;;14.77;7.00;;;;;;;1.46;100.00;100814.53;5002803;28;20223;-71
2022/11/20 04:02:51;;;;;;;12.87;5.93;;;;;;;1.58;100.00;100803.88;4997572;28;20087;-71
2022/11/20 04:05:17;;;;;;;14.67;6.50;;;;;;;1.66;100.00;100806.03;5006877;28;20041;-72
2022/11/20 04:07:42;;;;;;;10.53;6.00;;;;;;;1.69;100.00;100805.81;4992481;28;20104;-72
2022/11/20 04:10:10;;;;;;;11.73;5.63;;;;;;;1.66;100.00;100800.69;5002993;28;20030;-71
2022/11/20 04:12:35;;;;;;;15.93;5.30;;;;;;;1.71;100.00;100803.94;4993853;28;20121;-72
2022/11/20 04:15:01;;;;;;;19.43;6.33;;;;;;;1.68;100.00;100803.25;5002988;28;20545;-72
2022/11/20 04:17:26;;;;;;;10.63;5.70;;;;;;;1.74;100.00;100809.03;4993381;28;20040;-71
2022/11/20 04:19:51;;;;;;;19.23;7.20;;;;;;;1.78;100.00;100810.56;5022543;28;20030;-72
2022/11/20 04:22:17;;;;;;;13.90;6.10;;;;;;;1.79;100.00;100801.59;5004971;28;20079;-71
2022/11/20 04:24:42;;;;;;;14.27;5.33;;;;;;;1.87;100.00;100799.25;5005906;28;20033;-72
2022/11/20 04:27:07;;;;;;;15.93;5.23;;;;;;;1.61;100.00;100792.16;4999909;28;20417;-72
2022/11/20 04:29:33;;;;;;;16.77;6.30;;;;;;;1.62;100.00;100804.53;5022553;28;20057;-70
2022/11/20 04:31:58;;;;;;;13.03;5.47;;;;;;;1.86;100.00;100800.22;4992036;28;20044;-72
2022/11/20 04:34:24;;;;;;;10.47;5.53;;;;;;;1.75;100.00;100800.06;5004915;28;20022;-70
2022/11/20 04:36:49;;;;;;;9.20;5.63;;;;;;;1.81;100.00;100799.66;4998621;28;20025;-71
2022/11/20 04:39:15;;;;;;;12.67;5.90;;;;;;;1.87;100.00;100793.06;5005733;28;20021;-71
2022/11/20 04:41:41;;;;;;;11.63;6.03;;;;;;;1.74;100.00;100798.38;5006842;28;20025;-71
2022/11/20 04:44:07;;;;;;;10.23;5.40;;;;;;;1.75;100.00;100793.88;4971020;28;20060;-71
2022/11/20 04:46:38;;;;;;;15.93;6.33;;;;;;;1.80;100.00;100794.44;4993606;28;20413;-72
2022/11/20 04:49:04;;;;;;;13.27;5.32;;;;;;;1.82;100.00;100790.69;5010321;28;20103;-72
2022/11/20 04:51:30;;;;;;;13.50;6.63;;;;;;;1.70;100.00;100796.88;4999008;28;20083;-72
2022/11/20 04:53:55;;;;;;;14.67;6.43;;;;;;;1.57;100.00;100785.31;4998551;28;20026;-71
2022/11/20 04:56:21;;;;;;;12.30;7.50;;;;;;;1.62;100.00;100788.50;5019718;28;20025;-72
2022/11/20 04:58:46;;;;;;;13.83;6.40;;;;;;;1.72;100.00;100784.28;5024827;28;20029;-72
2022/11/20 05:01:17;;;;;;;10.77;6.27;;;;;;;1.68;100.00;100790.78;4999975;28;20025;-73
2022/11/20 05:03:44;;;;;;;17.33;7.13;;;;;;;1.44;100.00;100784.44;5017232;28;20052;-71
2022/11/20 05:06:12;;;;;;;10.10;6.50;;;;;;;1.36;100.00;100787.56;4996867;28;20026;-71
2022/11/20 05:08:38;;;;;;;16.30;7.40;;;;;;;1.15;100.00;100768.53;4996209;28;20022;-70
2022/11/20 05:11:06;;;;;;;24.70;7.50;;;;;;;1.31;100.00;100773.72;4991716;28;20028;-73
2022/11/20 05:13:31;;;;;;;12.17;6.10;;;;;;;1.28;100.00;100774.75;5020884;28;20025;-72
2022/11/20 05:16:06;;;;;;;16.80;7.43;;;;;;;1.52;100.00;100771.44;5000764;28;20026;-71
2022/11/20 05:18:34;;;;;;;11.47;5.70;;;;;;;1.42;100.00;100764.97;4997958;28;20018;-72
2022/11/20 05:21:00;;;;;;;14.33;6.67;;;;;;;1.46;100.00;100766.50;5018655;28;20058;-72
2022/11/20 05:23:27;;;;;;;16.20;7.17;;;;;;;1.36;100.00;100756.44;4997538;28;20076;-72
2022/11/20 05:25:56;;;;;;;12.13;6.83;;;;;;;1.27;100.00;100757.06;4992168;28;20022;-74
2022/11/20 05:28:22;;;;;;;13.90;6.43;;;;;;;1.16;100.00;100754.22;5005570;28;20029;-73
2022/11/20 05:30:48;;;;;;;11.57;6.63;;;;;;;1.39;100.00;100749.19;5001755;28;20021;-71
2022/11/20 05:33:14;;;;;;;14.87;7.10;;;;;;;1.46;100.00;100750.50;5003455;28;20094;-72
2022/11/20 05:35:39;;;;;;;13.50;6.20;;;;;;;1.71;100.00;100755.03;5023539;28;20033;-73
2022/11/20 05:38:04;;;;;;;10.37;6.00;;;;;;;1.58;100.00;100752.34;5020743;28;20136;-72
2022/11/20 05:40:30;;;;;;;11.40;6.80;;;;;;;1.60;100.00;100753.09;5002112;28;20046;-72
2022/11/20 05:42:55;;;;;;;12.13;6.13;;;;;;;1.63;100.00;100752.88;5010780;28;20083;-72
2022/11/20 05:45:21;;;;;;;11.03;6.37;;;;;;;1.61;100.00;100746.78;4990367;28;20099;-72
2022/11/20 05:47:46;;;;;;;14.57;6.60;;;;;;;1.60;100.00;100747.75;5007756;28;20028;-73
2022/11/20 05:50:14;;;;;;;13.07;6.93;;;;;;;1.58;100.00;100741.66;4993978;28;20029;-70
2022/11/20 05:52:42;;;;;;;11.87;6.80;;;;;;;1.45;100.00;100732.78;4979286;28;20461;-72
2022/11/20 05:55:08;;;;;;;9.90;5.93;;;;;;;1.56;100.00;100740.91;5006313;28;20033;-72
2022/11/20 05:57:34;;;;;;;12.07;7.10;;;;;;;1.38;100.00;100736.81;4989411;28;20109;-71
2022/11/20 05:59:59;;;;;;;12.30;6.93;;;;;;;1.39;100.00;100733.19;4989340;28;20034;-71
2022/11/20 06:02:25;;;;;;;17.10;7.67;;;;;;;1.51;100.00;100727.03;5016953;28;20417;-71
2022/11/20 06:04:50;;;;;;;11.63;6.97;;;;;;;1.62;100.00;100735.16;5020028;28;20037;-71
2022/11/20 06:07:16;;;;;;;14.17;6.77;;;;;;;1.84;100.00;100740.75;4996333;28;20022;-71
2022/11/20 06:09:41;;;;;;;15.40;7.00;;;;;;;1.83;100.00;100736.38;5005127;28;20064;-71
2022/11/20 06:12:07;;;;;;;14.27;7.60;;;;;;;1.64;100.00;100733.25;5019779;28;20025;-71
2022/11/20 06:14:33;;;;;;;12.57;7.33;;;;;;;1.57;100.00;100731.97;4994087;28;20032;-71
2022/11/20 06:16:58;;;;;;;15.27;7.93;;;;;;;1.57;100.00;100738.16;5000423;28;20621;-72
2022/11/20 06:19:23;;;;;;;14.20;7.40;;;;;;;1.58;100.00;100744.34;4987253;28;20105;-71
2022/11/20 06:21:49;;;;;;;14.57;7.53;;;;;;;1.66;100.00;100733.97;4997752;28;20033;-71
2022/11/20 06:24:15;;;;;;;17.77;7.43;;;;;;;1.31;100.00;100744.38;5000419;28;20025;-71
2022/11/20 06:26:44;;;;;;;16.93;8.50;;;;;;;1.51;100.00;100737.72;4993373;28;20026;-71
2022/11/20 06:29:10;;;;;;;14.70;8.80;;;;;;;1.46;100.00;100739.81;4988305;28;20038;-71
2022/11/20 06:31:37;;;;;;;20.10;9.83;;;;;;;1.53;100.00;100741.13;5000010;28;20052;-72
2022/11/20 06:34:06;;;;;;;20.93;9.77;;;;;;;1.67;100.00;100749.03;5002482;28;20033;-71
2022/11/20 06:36:31;;;;;;;17.57;10.23;;;;;;;1.77;100.00;100744.78;5024075;28;20025;-71
2022/11/20 06:38:57;;;;;;;20.43;11.33;;;;;;;1.67;100.00;100743.69;5021249;28;20098;-72
2022/11/20 06:41:23;;;;;;;17.93;10.93;;;;;;;1.62;100.00;100737.81;5020061;28;20112;-70
2022/11/20 06:43:49;;;;;;;22.47;13.23;;;;;;;1.33;100.00;100729.97;4991949;28;20514;-71
2022/11/20 06:46:19;;;;;;;25.63;14.53;;;;;;;1.55;100.00;100736.53;5003266;28;20017;-71
2022/11/20 06:48:45;;;;;;;32.00;14.50;;;;;;;1.63;100.00;100742.22;5003180;28;20021;-71
2022/11/20 06:51:11;;;;;;;27.83;15.77;;;;;;;1.55;100.00;100739.19;5014617;28;20025;-72
2022/11/20 06:53:36;;;;;;;24.23;15.80;;;;;;;1.55;100.00;100733.84;5011925;28;20029;-71
2022/11/20 06:56:03;;;;;;;24.63;16.50;;;;;;;1.42;100.00;100733.81;5005247;28;20088;-70
2022/11/20 06:58:30;;;;;;;27.97;17.40;;;;;;;1.29;100.00;100722.28;4995368;28;20510;-71
2022/11/20 07:01:09;;;;;;;28.60;16.90;;;;;;;1.39;100.00;100727.84;4987549;28;20026;-70
2022/11/20 07:03:39;;;;;;;30.13;16.58;;;;;;;1.44;100.00;100715.06;4996871;28;20021;-70
2022/11/20 07:06:05;;;;;;;30.33;15.40;;;;;;;1.50;100.00;100730.63;5004943;28;20481;-70
2022/11/20 07:08:32;;;;;;;28.13;16.27;;;;;;;1.50;100.00;100730.63;4998348;28;20092;-71
2022/11/20 07:11:02;;;;;;;23.87;15.53;;;;;;;1.21;100.00;100730.78;5000190;28;20034;-72
2022/11/20 07:13:28;;;;;;;24.37;14.77;;;;;;;1.19;100.00;100732.72;5013097;28;20023;-71
2022/11/20 07:15:54;;;;;;;30.53;15.07;;;;;;;1.33;100.00;100735.31;5017017;28;20097;-71
2022/11/20 07:18:20;;;;;;;30.03;16.03;;;;;;;1.27;100.00;100741.03;4998282;28;20110;-71
2022/11/20 07:20:45;;;;;;;26.70;13.97;;;;;;;1.37;100.00;100735.97;4999903;28;20033;-72
2022/11/20 07:23:10;;;;;;;18.40;12.27;;;;;;;1.20;100.00;100734.41;4999017;28;20076;-71
2022/11/20 07:25:36;;;;;;;18.53;9.77;;;;;;;1.47;100.00;100730.84;5016637;28;20068;-72
2022/11/20 07:28:01;;;;;;;20.97;11.70;;;;;;;1.48;100.00;100732.56;5001161;28;20021;-71
2022/11/20 07:30:30;;;;;;;16.40;10.87;;;;;;;1.53;100.00;100735.78;5001022;28;20033;-71
2022/11/20 07:32:56;;;;;;;39.77;17.33;;;;;;;1.40;100.00;100732.22;5002855;28;20478;-72
2022/11/20 07:35:23;;;;;;;24.57;12.23;;;;;;;1.30;100.00;100735.53;5001103;28;20101;-71
2022/11/20 07:37:48;;;;;;;18.80;10.60;;;;;;;1.40;100.00;100729.56;5019323;28;20100;-71
2022/11/20 07:40:15;;;;;;;17.73;10.33;;;;;;;1.21;100.00;100738.78;5007200;28;20092;-71
2022/11/20 07:42:49;;;;;;;18.93;10.27;;;;;;;1.54;100.00;100732.16;5008977;28;20052;-72
2022/11/20 07:45:16;;;;;;;17.20;10.50;;;;;;;1.56;100.00;100735.56;4983055;28;20034;-71
2022/11/20 07:47:41;;;;;;;16.33;8.80;;;;;;;1.39;100.00;100738.53;5003316;28;20029;-69
2022/11/20 07:50:07;;;;;;;17.57;9.53;;;;;;;1.35;100.00;100733.38;5021614;28;20025;-69
2022/11/20 07:52:32;;;;;;;19.10;10.13;;;;;;;1.34;100.00;100737.00;5004519;28;20463;-69
2022/11/20 07:54:58;;;;;;;16.63;9.50;;;;;;;1.38;100.00;100729.69;5019991;28;20367;-69
2022/11/20 07:57:23;;;;;;;17.83;9.47;;;;;;;1.26;100.00;100726.00;5001141;28;20390;-69
2022/11/20 07:59:48;;;;;;;13.90;8.37;;;;;;;1.50;100.00;100735.97;5020517;28;20032;-70
2022/11/20 08:02:14;;;;;;;14.80;9.07;;;;;;;1.32;100.00;100733.59;5004567;28;20057;-69
2022/11/20 08:04:39;;;;;;;14.73;8.87;;;;;;;1.30;100.00;100730.19;5004601;28;20022;-69
2022/11/20 08:07:04;;;;;;;14.90;8.60;;;;;;;1.59;100.00;100727.38;5004665;28;20029;-69
2022/11/20 08:09:29;;;;;;;21.40;8.60;;;;;;;1.54;100.00;100726.81;5005870;28;20466;-69
2022/11/20 08:14:39;;;;;;;13.40;8.37;;;;;;;1.62;100.00;100724.47;5016655;28;20078;-69
2022/11/20 08:17:06;;;;;;;15.97;9.17;;;;;;;1.38;100.00;100731.50;4995265;28;20475;-69
2022/11/20 08:19:32;;;;;;;15.50;9.07;;;;;;;1.55;100.00;100723.19;4998172;28;20045;-69
2022/11/20 08:21:58;;;;;;;15.17;8.77;;;;;;;1.79;100.00;100732.19;5003852;28;20038;-69
2022/11/20 08:24:24;;;;;;;12.40;8.53;;;;;;;1.84;100.00;100730.06;5014859;28;20029;-70
2022/11/20 08:26:49;;;;;;;10.80;7.47;;;;;;;1.62;100.00;100729.81;5003813;28;20049;-70
2022/11/20 08:29:15;;;;;;;13.37;7.50;;;;;;;1.83;100.00;100733.69;5005642;28;20127;-70
2022/11/20 08:31:40;;;;;;;11.70;7.03;;;;;;;1.81;100.00;100734.75;4996596;28;20116;-70
2022/11/20 08:34:05;;;;;;;11.53;6.87;;;;;;;2.06;100.00;100733.91;5002255;28;20045;-71
2022/11/20 08:36:34;;;;;;;8.63;6.40;;;;;;;1.91;99.78;100730.50;4999326;28;20093;-70
2022/11/20 08:38:59;;;;;;;14.23;7.80;;;;;;;1.99;100.00;100727.28;4995399;28;20024;-70
2022/11/20 08:41:27;;;;;;;13.87;8.47;;;;;;;2.18;99.33;100731.22;5001474;28;20025;-70
2022/11/20 08:43:58;;;;;;;9.00;6.40;;;;;;;1.87;100.00;100740.50;5001433;28;20024;-70
2022/11/20 08:46:25;;;;;;;9.50;6.00;;;;;;;1.83;100.00;100746.19;5004403;28;20013;-71
2022/11/20 08:48:51;;;;;;;15.07;6.13;;;;;;;1.96;100.00;100738.19;4997905;28;20438;-71
2022/11/20 08:51:19;;;;;;;10.60;6.40;;;;;;;1.94;100.00;100734.75;5005911;28;20081;-70
2022/11/20 08:53:49;;;;;;;17.93;6.50;;;;;;;1.93;99.96;100731.22;5003452;28;20038;-70
2022/11/20 08:56:16;;;;;;;8.82;6.18;;;;;;;1.72;100.00;100736.25;4998602;28;20048;-70
2022/11/20 08:58:42;;;;;;;10.07;6.10;;;;;;;1.59;100.00;100741.56;4989777;28;20030;-70
2022/11/20 09:01:08;;;;;;;9.57;6.70;;;;;;;1.62;100.00;100735.16;5017889;28;20488;-70
2022/11/20 09:03:33;;;;;;;9.30;6.43;;;;;;;1.57;100.00;100732.81;4997680;28;20037;-70
2022/11/20 09:06:00;;;;;;;12.07;7.00;;;;;;;1.68;100.00;100740.06;4994876;28;20030;-70
2022/11/20 09:08:26;;;;;;;10.20;6.33;;;;;;;1.94;100.00;100750.78;4993192;28;20064;-70
2022/11/20 09:10:53;;;;;;;12.40;7.20;;;;;;;1.89;100.00;100754.63;5007100;28;20021;-70
2022/11/20 09:13:27;;;;;;;9.97;6.73;;;;;;;1.60;100.00;100742.41;5004978;28;20112;-71
2022/11/20 09:15:54;;;;;;;10.00;6.53;;;;;;;1.82;100.00;100737.31;5000826;28;20021;-70
2022/11/20 09:18:19;;;;;;;9.33;6.07;;;;;;;2.16;100.00;100734.97;5002960;28;20425;-70
2022/11/20 09:20:45;;;;;;;11.03;6.47;;;;;;;2.19;100.00;100729.41;4997787;28;20038;-70
2022/11/20 09:23:10;;;;;;;8.40;5.80;;;;;;;2.12;100.00;100738.81;5000964;28;20079;-70
2022/11/20 09:25:36;;;;;;;9.03;6.13;;;;;;;1.92;100.00;100737.53;5534167;22;20111;-71
2022/11/20 09:28:01;;;;;;;10.77;7.57;;;;;;;1.80;100.00;100744.56;4970961;28;20461;-70
2022/11/20 09:30:27;;;;;;;13.77;8.07;;;;;;;1.66;100.00;100741.13;4988415;28;20085;-71
2022/11/20 09:32:52;;;;;;;12.53;7.53;;;;;;;1.45;100.00;100733.63;4990154;28;20113;-70
2022/11/20 09:35:18;;;;;;;13.63;8.63;;;;;;;1.43;100.00;100729.34;4974793;28;20030;-70
2022/11/20 09:37:45;;;;;;;12.73;8.50;;;;;;;1.43;100.00;100730.19;4988790;28;20040;-70
2022/11/20 09:40:26;;;;;;;14.77;8.73;;;;;;;1.77;100.00;100731.44;4970920;28;20046;-70
2022/11/20 09:43:16;;;;;;;13.40;7.68;;;;;;;1.97;100.00;100734.56;4970151;28;20038;-70
2022/11/20 09:46:00;;;;;;;12.53;7.93;;;;;;;1.89;100.00;100732.38;4975287;28;20030;-70
2022/11/20 09:48:42;;;;;;;13.07;8.00;;;;;;;1.97;100.00;100734.56;4982512;28;20034;-69
2022/11/20 09:51:30;;;;;;;13.43;8.00;;;;;;;1.81;100.00;100740.09;4990758;28;20061;-70
2022/11/20 09:54:15;;;;;;;11.90;7.80;;;;;;;1.88;100.00;100742.22;4989992;28;20076;-70
2022/11/20 09:56:44;;;;;;;10.37;7.80;;;;;;;2.07;100.00;100735.59;5008578;28;20364;-71
2022/11/20 09:59:29;;;;;;;13.93;8.07;;;;;;;1.85;100.00;100742.44;5000140;28;20391;-71
2022/11/20 10:01:55;;;;;;;14.30;8.00;;;;;;;1.83;100.00;100744.38;5006026;28;20022;-70
2022/11/20 10:04:22;;;;;;;10.10;7.10;;;;;;;1.62;100.00;100745.81;4988473;28;20104;-70
2022/11/20 10:07:04;;;;;;;15.13;9.27;;;;;;;1.63;100.00;100731.53;4999249;28;20076;-70
2022/11/20 10:09:39;;;;;;;13.73;7.80;;;;;;;1.65;100.00;100740.28;4978570;28;20390;-71
2022/11/20 10:12:33;;;;;;;13.10;7.53;;;;;;;2.00;100.00;100742.34;4990696;28;20395;-71
2022/11/20 10:15:33;;;;;;;11.17;7.60;;;;;;;1.83;100.00;100733.69;5007354;28;20026;-71
2022/11/20 10:18:07;;;;;;;13.17;7.30;;;;;;;1.87;100.00;100740.50;4975217;28;20030;-70
2022/11/20 10:20:54;;;;;;;12.70;7.53;;;;;;;1.83;100.00;100731.03;4988559;28;20019;-71
2022/11/20 10:24:01;;;;;;;11.97;7.53;;;;;;;1.90;100.00;100739.47;4973901;28;20075;-71
2022/11/20 10:26:42;;;;;;;11.07;6.80;;;;;;;2.04;100.00;100730.50;4989031;28;20033;-71
2022/11/20 10:29:11;;;;;;;14.35;8.75;;;;;;;1.90;100.00;100721.63;4989352;28;20522;-69
2022/11/20 10:31:44;;;;;;;13.07;7.60;;;;;;;2.25;100.00;100728.97;5007739;28;20046;-71
2022/11/20 10:34:34;;;;;;;18.33;10.20;;;;;;;2.27;100.00;100726.19;4990497;28;20038;-69
2022/11/20 10:37:24;;;;;;;13.03;8.20;;;;;;;1.98;100.00;100720.25;4988844;28;20037;-72
2022/11/20 10:40:26;;;;;;;8.68;6.47;;;;;;;1.86;100.00;100722.78;4995928;28;20038;-70
2022/11/20 10:42:56;;;;;;;15.80;7.07;;;;;;;2.01;100.00;100714.66;5001596;28;20655;-71
2022/11/20 10:45:24;;;;;;;8.73;5.27;;;;;;;1.86;100.00;100722.78;4989578;28;20029;-70
2022/11/20 10:47:52;;;;;;;11.83;6.97;;;;;;;2.14;100.00;100720.84;4989858;28;20021;-70
2022/11/20 10:50:21;;;;;;;9.17;6.03;;;;;;;2.28;100.00;100711.88;4989421;28;20036;-70
2022/11/20 10:53:10;;;;;;;8.18;6.00;;;;;;;2.91;99.31;100717.03;4989619;28;20025;-69
2022/11/20 10:55:46;;;;;;;8.43;5.30;;;;;;;2.94;99.29;100714.16;4988804;28;20024;-70
2022/11/20 10:58:33;;;;;;;9.95;6.20;;;;;;;2.85;98.84;100714.81;4989597;28;20026;-71
2022/11/20 11:01:13;;;;;;;8.67;5.90;;;;;;;2.47;99.03;100719.41;4990142;28;20021;-71
2022/11/20 11:03:38;;;;;;;8.17;4.67;;;;;;;2.29;99.12;100714.44;4973571;28;20072;-71
2022/11/20 11:06:12;;;;;;;8.40;4.80;;;;;;;2.29;98.71;100719.78;4970129;28;20082;-72
2022/11/20 11:08:39;;;;;;;9.53;5.50;;;;;;;2.49;99.21;100717.50;4970007;28;20386;-72
2022/11/20 11:11:25;;;;;;;8.20;4.90;;;;;;;2.68;99.13;100701.84;4971177;28;20095;-72
2022/11/20 11:13:52;;;;;;;13.30;4.63;;;;;;;2.66;97.47;100701.09;4973087;28;20085;-71
2022/11/20 11:16:26;;;;;;;6.60;5.00;;;;;;;2.58;97.30;100695.47;4974521;28;20018;-71
2022/11/20 11:19:15;;;;;;;6.37;4.10;;;;;;;2.65;97.88;100694.91;4992596;28;20033;-71
2022/11/20 11:21:50;;;;;;;8.70;4.47;;;;;;;3.08;96.26;100690.88;4992625;28;20050;-71
2022/11/20 11:24:30;;;;;;;15.00;9.27;;;;;;;2.81;97.55;100689.28;4975142;28;20026;-70
2022/11/20 11:26:58;;;;;;;8.82;5.40;;;;;;;2.84;97.57;100691.72;4975071;28;20537;-70
2022/11/20 11:29:26;;;;;;;7.45;5.07;;;;;;;2.70;97.26;100691.91;4974219;28;20031;-70
2022/11/20 11:32:11;;;;;;;5.85;4.40;;;;;;;2.67;97.28;100689.44;4974344;28;20026;-70